Time;durP1;ratioP1;P1;durP2;ratioP2;P2;SDS_P1;SDS_P2;PMS_P1;PMS_P2;Temp;Humidity;BMP_temperature;BMP_pressure;BME280_temperature;BME280_humidity;BME280_pressure;Samples;Min_cycle;Max_cycle;Signal;HPM_P1;HPM_P2
2023/03/17 10:11:26;;;;;;;15.80;14.90;;;18.30;66.40;;;;;;5106908;27;20564;-77
2023/03/17 10:13:57;;;;;;;14.83;14.13;;;21.40;57.90;;;;;;5107247;28;20441;-77
2023/03/17 10:16:32;;;;;;;16.53;15.63;;;21.40;57.70;;;;;;5107133;28;20923;-78
2023/03/17 10:19:04;;;;;;;13.80;13.00;;;21.40;57.20;;;;;;5107020;28;20463;-78
2023/03/17 10:21:35;;;;;;;14.00;13.30;;;20.90;57.40;;;;;;5107137;28;20441;-78
2023/03/17 10:24:04;;;;;;;14.27;13.47;;;20.80;57.20;;;;;;5107005;28;20449;-77
2023/03/17 10:26:38;;;;;;;15.03;14.33;;;20.90;56.40;;;;;;5107084;28;20448;-78
2023/03/17 10:29:11;;;;;;;14.30;13.60;;;21.30;54.40;;;;;;5107139;28;20488;-77
2023/03/17 10:31:39;;;;;;;15.07;14.27;;;21.10;52.60;;;;;;5106832;28;20489;-78
2023/03/17 10:34:14;;;;;;;14.90;14.13;;;20.60;54.50;;;;;;5106865;28;20450;-78
2023/03/17 10:36:43;;;;;;;14.93;14.23;;;20.40;55.50;;;;;;5107089;28;20838;-76
2023/03/17 10:39:17;;;;;;;14.47;13.67;;;20.20;55.90;;;;;;5107135;28;20546;-76
2023/03/17 10:41:54;;;;;;;15.37;14.07;;;20.00;55.30;;;;;;5107276;28;20452;-76
2023/03/17 10:44:28;;;;;;;15.70;14.93;;;20.00;56.00;;;;;;5107227;28;20453;-76
2023/03/17 10:46:56;;;;;;;14.27;13.03;;;20.10;56.30;;;;;;5107333;28;20452;-77
2023/03/17 10:49:25;;;;;;;12.43;11.83;;;20.40;56.30;;;;;;5107141;28;20530;-76
2023/03/17 10:51:54;;;;;;;13.93;13.23;;;20.70;53.50;;;;;;5107127;28;20519;-78
2023/03/17 10:54:24;;;;;;;13.93;13.23;;;21.10;53.90;;;;;;5106879;28;20445;-77
2023/03/17 10:57:00;;;;;;;14.77;14.00;;;21.10;52.70;;;;;;5106827;28;20510;-77
2023/03/17 10:59:30;;;;;;;16.43;15.43;;;21.30;51.60;;;;;;5106663;28;20536;-78
2023/03/17 11:01:59;;;;;;;15.37;14.67;;;21.80;52.10;;;;;;5106501;28;20496;-78
2023/03/17 11:04:28;;;;;;;13.77;13.17;;;21.90;52.10;;;;;;5106735;28;20896;-77
2023/03/17 11:06:57;;;;;;;14.20;13.60;;;22.30;51.20;;;;;;5100114;28;20462;-78
2023/03/17 11:09:24;;;;;;;14.67;13.97;;;22.30;51.00;;;;;;5093434;28;20502;-78
2023/03/17 11:12:03;;;;;;;15.20;14.40;;;21.70;51.40;;;;;;5074489;28;21005;-78
2023/03/17 11:14:30;;;;;;;15.77;14.77;;;21.30;52.20;;;;;;5071200;28;20942;-77
2023/03/17 11:17:00;;;;;;;14.03;13.20;;;20.80;52.80;;;;;;5072764;28;20451;-77
2023/03/17 11:19:36;;;;;;;13.90;13.30;;;20.80;53.10;;;;;;5072621;28;20461;-77
2023/03/17 11:22:10;;;;;;;12.97;12.40;;;20.90;53.40;;;;;;5072864;28;20939;-77
2023/03/17 11:24:44;;;;;;;14.00;13.30;;;20.80;52.80;;;;;;5072198;28;20458;-76
2023/03/17 11:27:24;;;;;;;14.17;13.43;;;20.60;53.70;;;;;;5072122;28;20459;-77
2023/03/17 11:30:25;;;;;;;14.30;13.70;;;20.50;53.40;;;;;;5072192;28;20483;-77
2023/03/17 11:32:57;;;;;;;13.40;12.80;;;20.90;53.10;;;;;;5065839;28;20463;-77
2023/03/17 11:35:43;;;;;;;12.87;12.37;;;20.80;52.80;;;;;;5072540;28;20497;-76
2023/03/17 11:38:21;;;;;;;12.13;11.63;;;20.80;52.80;;;;;;5072167;28;20454;-77
2023/03/17 11:41:07;;;;;;;13.87;12.90;;;20.60;53.10;;;;;;5072511;28;20454;-77
2023/03/17 11:43:44;;;;;;;12.40;11.90;;;20.80;53.20;;;;;;5072535;28;20454;-77
2023/03/17 11:46:15;;;;;;;13.50;12.80;;;21.10;52.60;;;;;;5072104;28;20455;-77
2023/03/17 11:48:52;;;;;;;13.53;12.83;;;21.60;51.30;;;;;;5071819;28;20958;-76
2023/03/17 11:51:29;;;;;;;12.50;11.90;;;21.60;50.60;;;;;;5071593;28;20984;-77
2023/03/17 11:54:09;;;;;;;12.63;12.00;;;21.80;50.10;;;;;;5071157;28;20565;-78
2023/03/17 11:56:40;;;;;;;13.37;12.87;;;22.40;49.70;;;;;;5071549;28;20480;-77
2023/03/17 11:59:17;;;;;;;13.60;13.00;;;23.20;48.60;;;;;;5071236;28;20447;-78
2023/03/17 12:01:53;;;;;;;13.03;12.33;;;23.90;46.50;;;;;;5071807;28;20449;-78
2023/03/17 12:04:28;;;;;;;13.10;12.60;;;24.30;46.70;;;;;;5071229;28;20473;-76
2023/03/17 12:07:03;;;;;;;12.77;12.27;;;24.60;45.70;;;;;;5071498;28;20447;-78
2023/03/17 12:09:34;;;;;;;13.13;12.53;;;25.00;45.00;;;;;;5071082;28;20504;-77
2023/03/17 12:12:03;;;;;;;13.87;13.27;;;25.10;44.90;;;;;;5071791;28;20553;-76
2023/03/17 12:14:35;;;;;;;13.50;12.70;;;24.40;45.10;;;;;;5071764;28;20451;-76
2023/03/17 12:17:06;;;;;;;12.93;12.33;;;24.30;45.90;;;;;;5071819;28;20811;-77
2023/03/17 12:19:51;;;;;;;12.60;12.10;;;23.90;45.20;;;;;;5071505;28;20822;-77
2023/03/17 12:22:25;;;;;;;12.97;12.37;;;23.40;45.30;;;;;;5070978;28;20473;-77
2023/03/17 12:25:04;;;;;;;13.03;12.43;;;23.40;46.00;;;;;;5071741;28;20511;-78
2023/03/17 12:27:36;;;;;;;13.13;12.43;;;23.50;46.50;;;;;;5071588;28;20451;-77
2023/03/17 12:30:17;;;;;;;13.10;12.50;;;23.40;45.20;;;;;;5071536;28;20483;-76
2023/03/17 12:32:52;;;;;;;14.73;14.13;;;23.80;45.40;;;;;;5071438;28;20454;-77
2023/03/17 12:35:26;;;;;;;15.10;14.40;;;24.10;45.00;;;;;;5071549;28;20759;-75
2023/03/17 12:37:53;;;;;;;13.17;12.63;;;24.50;45.30;;;;;;5071337;28;20451;-76
2023/03/17 12:40:25;;;;;;;12.30;11.90;;;24.70;43.70;;;;;;5071139;28;20901;-77
2023/03/17 12:42:58;;;;;;;12.43;11.93;;;24.50;43.20;;;;;;5071080;28;20458;-76
2023/03/17 12:45:41;;;;;;;13.03;12.23;;;24.60;42.70;;;;;;5071068;28;20454;-77
2023/03/17 12:48:35;;;;;;;13.17;12.53;;;24.30;42.60;;;;;;5071167;28;20450;-77
2023/03/17 12:51:42;;;;;;;13.10;12.20;;;24.20;42.90;;;;;;5068323;28;20478;-76
2023/03/17 12:54:14;;;;;;;16.17;15.17;;;24.30;43.40;;;;;;5070300;28;20492;-76
2023/03/17 12:56:45;;;;;;;13.77;13.17;;;24.50;43.70;;;;;;5070847;28;20454;-75
2023/03/17 12:59:17;;;;;;;13.67;13.17;;;24.50;43.00;;;;;;5070707;28;20454;-76
2023/03/17 13:01:53;;;;;;;11.87;11.37;;;24.20;42.70;;;;;;5070653;28;20447;-76
2023/03/17 13:04:23;;;;;;;14.37;13.23;;;24.80;42.10;;;;;;5070665;28;20447;-76
2023/03/17 13:06:59;;;;;;;13.13;12.53;;;24.70;41.20;;;;;;5070282;28;20459;-76
2023/03/17 13:09:33;;;;;;;13.10;12.60;;;24.70;41.60;;;;;;5070297;28;20526;-76
2023/03/17 13:12:01;;;;;;;12.30;11.70;;;24.60;41.10;;;;;;5070498;28;20443;-76
2023/03/17 13:14:41;;;;;;;13.67;13.17;;;24.60;41.40;;;;;;5070477;28;20444;-75
2023/03/17 13:17:33;;;;;;;13.50;13.00;;;24.40;41.00;;;;;;5070394;28;20465;-76
2023/03/17 13:20:16;;;;;;;12.57;12.00;;;24.20;40.00;;;;;;5070422;28;20804;-77
2023/03/17 13:23:02;;;;;;;12.07;11.57;;;24.10;40.20;;;;;;5070246;28;20799;-76
2023/03/17 13:25:34;;;;;;;12.37;11.87;;;24.60;39.50;;;;;;5070121;28;20443;-76
2023/03/17 13:28:22;;;;;;;13.03;12.33;;;24.80;38.10;;;;;;5070417;28;20443;-76
2023/03/17 13:31:10;;;;;;;12.33;11.83;;;24.90;37.00;;;;;;5070130;28;20546;-77
2023/03/17 13:33:45;;;;;;;12.33;11.83;;;24.30;36.20;;;;;;5069772;28;20538;-76
2023/03/17 13:36:28;;;;;;;11.60;11.10;;;24.30;36.90;;;;;;5070191;28;20478;-76
2023/03/17 13:39:11;;;;;;;11.70;11.30;;;24.20;35.90;;;;;;5069812;28;20731;-77
2023/03/17 13:41:48;;;;;;;11.50;11.10;;;24.20;36.10;;;;;;5069599;28;20538;-76
2023/03/17 13:44:38;;;;;;;12.80;12.30;;;24.20;36.30;;;;;;5069998;28;20451;-76
2023/03/17 13:47:24;;;;;;;13.70;13.10;;;24.50;36.40;;;;;;5069994;28;20447;-76
2023/03/17 13:49:55;;;;;;;13.03;12.53;;;24.70;37.00;;;;;;5069851;28;20487;-77
2023/03/17 13:52:27;;;;;;;12.40;11.90;;;25.10;36.50;;;;;;5069996;28;20542;-76
2023/03/17 13:55:01;;;;;;;12.60;12.10;;;25.30;36.20;;;;;;5069779;28;20490;-76
2023/03/17 13:57:30;;;;;;;12.40;11.90;;;25.30;36.10;;;;;;5069953;28;20455;-76
2023/03/17 14:00:03;;;;;;;12.80;12.30;;;25.50;35.90;;;;;;5069396;28;20457;-76
2023/03/17 14:02:32;;;;;;;11.17;10.87;;;25.60;35.60;;;;;;5070018;28;20459;-76
2023/03/17 14:05:02;;;;;;;12.50;12.10;;;25.60;36.10;;;;;;5069996;28;20455;-75
2023/03/17 14:07:39;;;;;;;13.73;13.20;;;25.70;35.20;;;;;;5069871;28;20509;-76
2023/03/17 14:10:06;;;;;;;11.63;11.23;;;25.60;35.40;;;;;;5069639;28;20496;-75
2023/03/17 14:12:39;;;;;;;11.93;11.43;;;25.60;35.00;;;;;;5069904;28;21048;-75
2023/03/17 14:15:14;;;;;;;13.10;12.40;;;25.60;35.20;;;;;;5069816;28;20541;-74
2023/03/17 14:17:46;;;;;;;13.20;12.50;;;25.40;34.90;;;;;;5069852;28;20953;-76
2023/03/17 14:20:22;;;;;;;12.70;12.20;;;25.40;34.70;;;;;;5069669;28;20856;-74
2023/03/17 14:22:54;;;;;;;12.77;12.17;;;25.30;35.20;;;;;;5069607;28;20443;-76
2023/03/17 14:25:22;;;;;;;13.23;12.60;;;25.00;34.70;;;;;;5069716;28;20500;-76
2023/03/17 14:27:52;;;;;;;12.97;12.37;;;25.00;35.40;;;;;;5069877;28;20458;-76
2023/03/17 14:30:21;;;;;;;13.33;12.83;;;25.00;35.30;;;;;;5069574;28;20483;-76
2023/03/17 14:32:51;;;;;;;11.97;11.43;;;24.80;35.20;;;;;;5069688;28;20458;-76
2023/03/17 14:35:20;;;;;;;13.70;12.90;;;24.70;35.30;;;;;;5069542;28;20460;-76
2023/03/17 14:37:47;;;;;;;12.10;11.50;;;24.80;35.40;;;;;;5069687;28;20455;-75
2023/03/17 14:40:22;;;;;;;12.93;12.23;;;24.80;35.60;;;;;;5069462;28;20439;-75
2023/03/17 14:42:49;;;;;;;12.50;12.00;;;24.80;35.40;;;;;;5069780;28;20909;-77
2023/03/17 14:45:26;;;;;;;13.43;12.63;;;24.80;34.90;;;;;;5069575;28;20451;-75
2023/03/17 14:47:53;;;;;;;12.30;11.70;;;24.80;35.90;;;;;;5072979;28;20450;-75
2023/03/17 14:50:26;;;;;;;13.20;12.60;;;24.60;35.20;;;;;;5073237;28;20482;-74
2023/03/17 14:52:53;;;;;;;12.00;11.30;;;24.70;35.10;;;;;;5073084;28;20457;-76
2023/03/17 14:55:20;;;;;;;13.80;13.00;;;24.80;35.40;;;;;;5073150;28;20458;-76
2023/03/17 14:57:51;;;;;;;12.40;11.90;;;24.50;35.20;;;;;;5073086;28;20451;-76
2023/03/17 15:00:33;;;;;;;11.27;10.67;;;24.20;36.10;;;;;;5073122;28;20451;-77
2023/03/17 15:03:04;;;;;;;12.13;11.63;;;23.90;36.50;;;;;;5072754;28;20478;-75
2023/03/17 15:05:38;;;;;;;12.70;12.00;;;23.60;36.50;;;;;;5073007;28;20451;-76
2023/03/17 15:08:44;;;;;;;11.63;10.97;;;23.40;37.60;;;;;;5073004;28;20484;-77
2023/03/17 15:11:18;;;;;;;10.40;10.00;;;23.50;37.90;;;;;;5057552;28;20498;-75
2023/03/17 15:13:45;;;;;;;11.23;10.73;;;23.20;38.00;;;;;;5072767;28;20451;-76
2023/03/17 15:16:22;;;;;;;12.93;11.77;;;23.00;38.90;;;;;;5072899;28;20943;-76
2023/03/17 15:18:54;;;;;;;12.30;11.70;;;22.80;39.40;;;;;;5072785;28;20446;-76
2023/03/17 15:21:33;;;;;;;11.67;11.17;;;22.80;39.90;;;;;;5072724;28;20447;-77
2023/03/17 15:24:05;;;;;;;13.40;12.37;;;22.90;40.10;;;;;;5072473;28;20450;-75
2023/03/17 15:26:32;;;;;;;12.80;12.30;;;22.90;39.90;;;;;;5072288;28;20543;-77
2023/03/17 15:28:59;;;;;;;11.80;11.30;;;22.90;39.80;;;;;;5072014;28;20443;-75
2023/03/17 15:31:28;;;;;;;11.77;11.37;;;22.80;39.90;;;;;;5072276;28;20570;-76
2023/03/17 15:33:57;;;;;;;11.47;10.87;;;22.60;41.00;;;;;;5072332;28;20485;-75
2023/03/17 15:36:24;;;;;;;12.67;12.07;;;22.40;41.30;;;;;;5072531;28;20942;-77
2023/03/17 15:38:52;;;;;;;12.43;11.93;;;22.30;41.70;;;;;;5072471;28;20451;-77
2023/03/17 15:41:20;;;;;;;12.17;11.77;;;22.20;42.00;;;;;;5072391;28;20451;-75
2023/03/17 15:43:46;;;;;;;12.00;11.50;;;22.10;42.50;;;;;;5072533;28;20478;-76
2023/03/17 15:46:22;;;;;;;11.63;11.13;;;22.00;42.90;;;;;;5072158;28;20455;-75
2023/03/17 15:48:48;;;;;;;11.83;11.33;;;21.90;43.30;;;;;;5072623;28;20454;-76
2023/03/17 15:51:16;;;;;;;12.00;11.40;;;21.80;43.60;;;;;;5072324;28;20616;-76
2023/03/17 15:53:42;;;;;;;12.83;12.33;;;21.70;44.10;;;;;;5072347;28;20497;-77
2023/03/17 15:56:17;;;;;;;12.20;11.70;;;21.70;43.30;;;;;;5072175;28;20868;-75
2023/03/17 15:58:45;;;;;;;11.20;10.80;;;21.70;43.20;;;;;;5072044;28;20451;-76
2023/03/17 16:01:12;;;;;;;12.17;11.27;;;21.60;43.80;;;;;;5072035;28;20902;-76
2023/03/17 16:03:40;;;;;;;12.60;11.97;;;21.70;45.10;;;;;;5072290;28;20446;-77
2023/03/17 16:06:16;;;;;;;12.67;11.97;;;21.70;45.50;;;;;;5072768;28;20451;-77
2023/03/17 16:08:44;;;;;;;12.60;12.00;;;21.70;45.30;;;;;;5072835;28;20951;-77
2023/03/17 16:11:17;;;;;;;11.20;10.53;;;21.60;46.80;;;;;;5071997;28;21043;-76
2023/03/17 16:13:45;;;;;;;12.03;11.30;;;21.50;48.80;;;;;;5072141;28;20813;-76
2023/03/17 16:16:20;;;;;;;11.70;11.10;;;21.30;49.00;;;;;;5071862;28;20458;-76
2023/03/17 16:18:49;;;;;;;13.20;12.70;;;21.40;49.20;;;;;;5072117;28;20457;-76
2023/03/17 16:21:16;;;;;;;12.23;11.53;;;21.40;48.90;;;;;;5071643;28;20870;-76
2023/03/17 16:23:43;;;;;;;13.60;13.00;;;21.40;48.60;;;;;;5071559;28;20461;-76
2023/03/17 16:26:10;;;;;;;13.20;12.50;;;21.30;49.80;;;;;;5071378;28;20451;-76
2023/03/17 16:28:38;;;;;;;11.57;10.97;;;21.10;51.40;;;;;;5071291;28;20463;-76
2023/03/17 16:31:21;;;;;;;13.03;11.90;;;20.90;51.70;;;;;;5071211;28;20890;-75
2023/03/17 16:33:49;;;;;;;13.30;12.23;;;20.20;52.30;;;;;;5071339;28;20458;-76
2023/03/17 16:36:16;;;;;;;14.27;13.27;;;19.90;53.00;;;;;;5071324;28;20459;-75
2023/03/17 16:38:44;;;;;;;13.27;12.30;;;20.00;54.70;;;;;;5070939;28;20447;-76
2023/03/17 16:41:19;;;;;;;12.93;12.23;;;20.00;54.00;;;;;;5071168;28;20439;-77
2023/03/17 16:43:50;;;;;;;12.67;11.80;;;19.80;54.60;;;;;;5071403;28;20533;-75
2023/03/17 16:46:19;;;;;;;12.13;11.43;;;19.80;55.10;;;;;;5071060;28;20492;-75
2023/03/17 16:48:47;;;;;;;12.83;11.93;;;19.70;55.60;;;;;;5071006;28;20457;-76
2023/03/17 16:51:14;;;;;;;12.80;12.20;;;19.50;55.50;;;;;;5070913;28;20849;-76
2023/03/17 16:53:40;;;;;;;15.13;13.70;;;19.30;56.10;;;;;;5070831;28;20658;-75
2023/03/17 16:56:14;;;;;;;13.33;12.53;;;19.20;56.30;;;;;;5070781;28;20439;-76
2023/03/17 16:58:40;;;;;;;15.07;13.97;;;19.00;57.10;;;;;;5070713;28;20508;-77
2023/03/17 17:01:14;;;;;;;13.73;12.83;;;18.70;58.40;;;;;;5070868;28;20454;-77
2023/03/17 17:03:42;;;;;;;13.60;12.60;;;18.50;59.40;;;;;;5070657;28;20884;-76
2023/03/17 17:06:10;;;;;;;13.10;12.17;;;18.40;60.10;;;;;;5071132;28;20458;-76
2023/03/17 17:08:37;;;;;;;11.83;11.20;;;18.00;60.00;;;;;;5070585;28;20463;-76
2023/03/17 17:11:04;;;;;;;15.03;14.00;;;17.90;60.60;;;;;;5071125;28;20894;-75
2023/03/17 17:13:31;;;;;;;14.60;13.43;;;17.90;62.90;;;;;;5071276;28;20459;-75
2023/03/17 17:15:57;;;;;;;14.20;13.20;;;17.90;63.80;;;;;;5070640;28;20961;-74
2023/03/17 17:18:25;;;;;;;14.60;13.70;;;17.80;65.30;;;;;;5070734;28;20447;-75
2023/03/17 17:20:55;;;;;;;16.10;15.00;;;17.70;67.10;;;;;;5070953;28;20447;-76
2023/03/17 17:23:24;;;;;;;16.20;15.10;;;17.60;67.90;;;;;;5071040;28;20553;-74
2023/03/17 17:25:51;;;;;;;16.33;15.23;;;17.60;68.60;;;;;;5071200;28;20512;-75
2023/03/17 17:28:21;;;;;;;18.03;16.73;;;17.50;69.80;;;;;;5070952;28;20828;-75
2023/03/17 17:30:49;;;;;;;19.13;17.53;;;17.40;71.50;;;;;;5070960;28;20546;-75
2023/03/17 17:33:17;;;;;;;19.57;17.97;;;17.30;73.50;;;;;;5070992;28;20461;-76
2023/03/17 17:35:46;;;;;;;14.60;13.50;;;17.30;73.50;;;;;;5070866;28;20496;-76
2023/03/17 17:38:19;;;;;;;14.20;13.30;;;17.30;73.90;;;;;;5070647;28;20446;-75
2023/03/17 17:40:46;;;;;;;12.83;11.90;;;17.20;74.30;;;;;;5070943;28;20497;-74
2023/03/17 17:43:13;;;;;;;14.10;13.20;;;17.20;74.70;;;;;;5070845;28;20878;-75
2023/03/17 17:45:40;;;;;;;14.13;13.07;;;17.10;75.10;;;;;;5070907;28;20484;-75
2023/03/17 17:48:06;;;;;;;15.90;14.47;;;17.00;76.40;;;;;;5070769;28;20486;-76
2023/03/17 17:50:34;;;;;;;14.10;12.90;;;16.90;76.80;;;;;;5070729;28;20451;-76
2023/03/17 17:53:04;;;;;;;12.80;12.20;;;16.80;77.60;;;;;;5070607;28;20487;-76
2023/03/17 17:55:32;;;;;;;12.83;12.00;;;16.70;78.20;;;;;;5070763;28;20512;-76
2023/03/17 17:57:59;;;;;;;13.77;12.60;;;16.60;79.20;;;;;;5070629;28;20533;-76
